createdAt,value
2022-11-19T10:09:26.135Z,84.84
2022-11-19T10:10:34.194Z,85.94
2022-11-19T10:12:06.125Z,84.80
2022-11-19T10:13:29.469Z,86.08
2022-11-19T10:15:00.281Z,85.60
2022-11-19T10:16:43.381Z,84.67
2022-11-19T10:18:16.966Z,85.37
2022-11-19T10:19:43.160Z,85.95
2022-11-19T10:20:51.191Z,84.46
2022-11-19T10:22:08.447Z,86.07
2022-11-19T10:23:24.374Z,87.05
2022-11-19T10:24:38.813Z,86.42
2022-11-19T10:25:46.192Z,85.77
2022-11-19T10:27:00.395Z,85.88
2022-11-19T10:28:17.276Z,86.82
2022-11-19T10:29:22.988Z,86.83
2022-11-19T10:30:28.884Z,87.36
2022-11-19T10:31:38.013Z,87.21
2022-11-19T10:32:44.124Z,85.33
2022-11-19T14:06:09.455Z,93.28
2022-11-19T14:07:45.944Z,93.24
2022-11-19T14:09:15.995Z,93.18
2022-11-19T14:10:51.576Z,92.67
2022-11-19T14:12:23.832Z,92.60
2022-11-19T14:14:06.657Z,92.60
2022-11-19T14:15:54.507Z,91.85
2022-11-19T14:17:28.173Z,91.24
2022-11-19T14:19:30.064Z,90.47
2022-11-19T14:20:54.681Z,89.87
2022-11-19T14:22:14.889Z,89.64
2022-11-19T14:24:06.053Z,89.49
2022-11-19T14:25:27.694Z,89.27
2022-11-19T14:26:40.940Z,88.15
2022-11-19T14:27:42.835Z,89.05
2022-11-19T14:28:52.351Z,88.44
2022-11-19T14:30:00.674Z,88.18
2022-11-19T14:31:05.049Z,88.09
2022-11-19T14:32:06.389Z,87.92
2022-11-19T14:33:43.120Z,87.68
2022-11-19T14:35:07.608Z,86.50
2022-11-19T14:36:14.760Z,86.29
2022-11-19T14:37:21.471Z,87.05
2022-11-19T14:38:35.313Z,85.99
2022-11-19T14:39:43.375Z,86.04
2022-11-19T14:40:45.315Z,86.34
2022-11-19T14:41:49.993Z,86.61
2022-11-19T15:50:55.644Z,89.82
